createdAt,value
2023-04-29T00:05:14.923Z,0.33
2023-04-29T00:17:15.059Z,0.35
2023-04-29T00:29:15.457Z,0.01
2023-04-29T00:41:15.943Z,0.00
2023-04-29T00:53:16.394Z,0.45
2023-04-29T01:05:16.817Z,0.24
2023-04-29T01:17:17.290Z,0.08
2023-04-29T01:29:17.753Z,0.00
2023-04-29T01:41:18.194Z,0.09
2023-04-29T01:53:18.646Z,0.00
2023-04-29T02:05:19.089Z,1.15
2023-04-29T02:17:19.549Z,0.70
2023-04-29T02:29:20.014Z,0.03
2023-04-29T02:41:20.458Z,0.29
2023-04-29T02:53:20.937Z,0.01
2023-04-29T03:05:21.389Z,0.12
2023-04-29T03:17:21.843Z,0.06
2023-04-29T03:29:22.241Z,0.57
2023-04-29T03:41:22.703Z,0.01
2023-04-29T03:53:23.196Z,0.00
2023-04-29T04:05:23.644Z,0.00
2023-04-29T04:17:24.046Z,0.33
2023-04-29T04:29:24.530Z,0.01
2023-04-29T04:41:24.993Z,0.96
2023-04-29T04:53:25.459Z,0.30
2023-04-29T05:05:25.878Z,0.01
2023-04-29T05:17:26.429Z,0.00
2023-04-29T05:29:26.780Z,0.35
2023-04-29T05:41:27.252Z,0.61
2023-04-29T05:53:27.792Z,0.18
2023-04-29T06:05:28.893Z,0.76
2023-04-29T06:17:28.619Z,1.04
2023-04-29T06:29:29.088Z,1.12
2023-04-29T06:41:29.510Z,0.43
2023-04-29T06:53:29.985Z,0.39
2023-04-29T07:05:30.416Z,0.29
2023-04-29T07:17:30.919Z,1.08
2023-04-29T07:29:31.326Z,1.40
2023-04-29T07:41:31.769Z,0.92
2023-04-29T07:53:32.215Z,1.07
2023-04-29T08:05:33.061Z,0.68
2023-04-29T08:17:33.183Z,1.70
2023-04-29T08:29:33.598Z,1.89
2023-04-29T08:41:34.051Z,1.59
2023-04-29T08:53:34.511Z,3.19
2023-04-29T09:05:34.972Z,2.23
2023-04-29T09:17:35.440Z,3.13
2023-04-29T09:29:35.876Z,2.21
2023-04-29T09:41:36.359Z,2.90
2023-04-29T09:53:36.765Z,1.21
2023-04-29T10:05:37.249Z,3.24
2023-04-29T10:17:37.681Z,2.10
2023-04-29T10:29:38.136Z,1.63
2023-04-29T10:41:38.603Z,1.31
2023-04-29T10:53:39.061Z,2.81
2023-04-29T11:05:39.492Z,1.36
2023-04-29T11:17:39.995Z,2.62
2023-04-29T11:29:40.469Z,1.96
2023-04-29T11:41:40.874Z,1.75
2023-04-29T11:53:41.349Z,1.73
2023-04-29T12:05:41.822Z,2.45
2023-04-29T12:17:42.261Z,2.56
2023-04-29T12:29:42.699Z,1.48
2023-04-29T12:41:43.157Z,2.07
2023-04-29T12:53:43.610Z,2.07
2023-04-29T13:05:44.076Z,1.89
2023-04-29T13:17:44.540Z,2.55
2023-04-29T13:29:44.977Z,2.22
2023-04-29T13:41:46.173Z,1.56
2023-04-29T13:54:43.750Z,1.90
2023-04-29T14:05:46.475Z,0.47
2023-04-29T14:17:46.828Z,1.67
2023-04-29T14:29:47.274Z,1.57
2023-04-29T14:41:47.716Z,2.39
2023-04-29T14:53:48.188Z,2.06
2023-04-29T15:05:48.621Z,1.80
2023-04-29T15:17:49.126Z,1.66
2023-04-29T15:29:49.534Z,1.25
2023-04-29T15:41:49.993Z,1.54
2023-04-29T15:53:50.453Z,1.48
2023-04-29T16:05:50.936Z,1.32
2023-04-29T16:17:51.375Z,1.06
2023-04-29T16:29:54.821Z,1.85
2023-04-29T16:41:52.270Z,1.34
2023-04-29T16:53:52.762Z,1.06
2023-04-29T17:05:53.231Z,1.24
2023-04-29T17:17:53.622Z,0.79
2023-04-29T17:29:54.314Z,0.66
2023-04-29T17:41:54.569Z,1.44
2023-04-29T17:53:54.992Z,1.59
2023-04-29T18:05:55.473Z,1.00
2023-04-29T18:17:55.973Z,0.20
2023-04-29T18:29:56.503Z,0.30
2023-04-29T18:41:56.784Z,0.16
2023-04-29T18:53:57.259Z,0.11
2023-04-29T19:05:57.746Z,0.14
2023-04-29T19:17:58.207Z,0.16
2023-04-29T19:29:58.632Z,1.54
2023-04-29T19:41:59.074Z,0.70
2023-04-29T19:53:59.536Z,0.86
2023-04-29T20:06:00.085Z,0.07
2023-04-29T20:18:00.458Z,0.53
2023-04-29T20:30:00.922Z,0.29
2023-04-29T20:42:01.356Z,0.75
2023-04-29T20:54:01.817Z,0.03
2023-04-29T21:06:02.288Z,0.00
2023-04-29T21:18:02.794Z,0.10
2023-04-29T21:30:03.169Z,0.21
2023-04-29T21:42:03.665Z,1.22
2023-04-29T21:54:04.095Z,0.23
2023-04-29T22:06:04.511Z,0.00
2023-04-29T22:18:05.010Z,0.07
2023-04-29T22:30:05.482Z,0.96
2023-04-29T22:42:05.875Z,0.37
2023-04-29T22:54:06.347Z,0.01
2023-04-29T23:06:06.968Z,0.23
2023-04-29T23:18:07.340Z,0.47
2023-04-29T23:30:07.698Z,0.46
2023-04-29T23:42:08.159Z,0.19
2023-04-29T23:54:08.586Z,0.90
